»·PEaware :: SWA1960 KPHX-KSNA

SWA1960 :: KPHX-KSNA

FLIGHT INFORMATION

Flight Status: Arrived
Operator:
Southwest Airlines
More flights by this operator :: More flights under this callsign
Pilot: Cody B. (17747)
Aircraft: BOEING 737-800
(B738)
More flights by this aircraft type
Origin: KPHX Phoenix Sky Harbor Intl
United States
Destination: KSNA John Wayne-Orange Co
United States
More flights between these airports :: More routes between these airports
Route: +KEENS2 HRRBR EMLLD DSNEE4
File this flight plan on PilotEdge
Remarks: PBN / A1B1C1D1S1S2 DOF / 180809 REG / N8301J EET / KZLA0021 CODE / AB5ADE OPR / SWA PER / C RMK / TCAS SIMBRIEF
Altitude:
(Current/Filed)
38,000ft
Speed:
(Current/Filed)
460kts
Departed: 09-Aug-18 10:42 AM
Arrived: 09-Aug-18 11:40 AM
Distance/Time
Traveled:
293nm/0:57
Distance/Time
To Go:
Arrived

Flight Plot

Page will automatically refresh every two minutes.

Flight plan parsing failed; only flown route is shown


Map Options




Map Legend


Flown Route
Filed Route
Departure Airport
Arrival Airport
Navaid (VOR, NDB)
Fix

Horizontal Profiles

Position Reports

Time Latitude Longitude Heading Altitude Ground
Speed
09-Aug-18 09:45 33.433689 -111.994859 82 1142ft 0kts
09-Aug-18 09:46 33.433689 -111.994859 82 1142ft 0kts
09-Aug-18 09:47 33.433689 -111.994859 82 1142ft 0kts
09-Aug-18 09:48 33.433689 -111.994859 82 1142ft 0kts
09-Aug-18 09:49 33.433689 -111.994859 82 1142ft 0kts
09-Aug-18 09:50 33.433689 -111.994859 82 1142ft 0kts
09-Aug-18 09:51 33.433689 -111.994859 82 1142ft 0kts
09-Aug-18 09:52 33.433689 -111.994859 82 1142ft 0kts
09-Aug-18 09:57 33.433685 -111.994857 82 1142ft 0kts
09-Aug-18 09:58 33.433685 -111.994857 82 1142ft 0kts
09-Aug-18 09:59 33.433685 -111.994857 82 1142ft 0kts
09-Aug-18 10:00 33.433685 -111.994857 82 1142ft 0kts
09-Aug-18 10:01 33.433685 -111.994857 82 1142ft 0kts
09-Aug-18 10:02 33.433685 -111.994857 82 1142ft 0kts
09-Aug-18 10:03 33.433685 -111.994857 82 1142ft 0kts
09-Aug-18 10:04 33.433685 -111.994857 82 1142ft 0kts
09-Aug-18 10:05 33.433685 -111.994857 82 1142ft 0kts
09-Aug-18 10:06 33.433685 -111.994857 82 1142ft 0kts
09-Aug-18 10:07 33.433685 -111.994857 82 1142ft 0kts
09-Aug-18 10:08 33.433685 -111.994857 82 1142ft 0kts
09-Aug-18 10:09 33.433685 -111.994857 82 1142ft 0kts
09-Aug-18 10:10 33.433685 -111.994857 82 1142ft 0kts
09-Aug-18 10:11 33.433685 -111.994857 82 1142ft 0kts
09-Aug-18 10:12 33.433685 -111.994857 82 1142ft 0kts
09-Aug-18 10:13 33.433685 -111.994857 82 1142ft 0kts
09-Aug-18 10:14 33.433685 -111.994857 82 1142ft 0kts
09-Aug-18 10:15 33.433685 -111.994857 82 1142ft 0kts
09-Aug-18 10:16 33.433685 -111.994857 82 1142ft 0kts
09-Aug-18 10:17 33.433685 -111.994857 82 1142ft 0kts
09-Aug-18 10:18 33.433685 -111.994857 82 1142ft 0kts
09-Aug-18 10:19 33.433685 -111.994857 82 1142ft 0kts
09-Aug-18 10:20 33.433685 -111.994857 82 1142ft 0kts
09-Aug-18 10:21 33.433685 -111.994857 82 1142ft 0kts
09-Aug-18 10:22 33.433685 -111.994857 82 1142ft 0kts
09-Aug-18 10:23 33.433685 -111.994857 82 1142ft 0kts
09-Aug-18 10:24 33.433687 -111.995178 122 1142ft 2kts
09-Aug-18 10:25 33.433943 -111.995312 180 1142ft 0kts
09-Aug-18 10:26 33.433943 -111.995312 180 1142ft 0kts
09-Aug-18 10:27 33.433943 -111.995312 180 1142ft 0kts
09-Aug-18 10:28 33.433471 -111.995304 178 1142ft 0kts
09-Aug-18 10:29 33.433471 -111.995304 178 1142ft 0kts
09-Aug-18 10:30 33.433471 -111.995304 178 1142ft 0kts
09-Aug-18 10:31 33.433363 -111.995305 182 1142ft 2kts
09-Aug-18 10:32 33.432820 -111.996965 270 1142ft 9kts
09-Aug-18 10:33 33.432826 -112.000935 270 1142ft 15kts
09-Aug-18 10:34 33.432882 -112.005889 271 1142ft 13kts
09-Aug-18 10:35 33.432878 -112.009443 270 1142ft 10kts
09-Aug-18 10:36 33.432885 -112.014403 270 1142ft 18kts
09-Aug-18 10:37 33.432875 -112.020676 270 1142ft 17kts
09-Aug-18 10:38 33.432874 -112.026026 270 1142ft 10kts
09-Aug-18 10:39 33.432112 -112.026961 179 1142ft 0kts
09-Aug-18 10:40 33.432112 -112.026961 179 1142ft 0kts
09-Aug-18 10:41 33.431437 -112.026954 179 1142ft 5kts
09-Aug-18 10:42 33.431080 -112.025823 89 1142ft 11kts
09-Aug-18 10:43 33.430884 -111.996116 92 1678ft 151kts
09-Aug-18 10:44 33.430786 -111.934394 87 3396ft 236kts
09-Aug-18 10:45 33.417393 -111.860337 137 6930ft 244kts
09-Aug-18 10:46 33.354037 -111.863557 232 9898ft 262kts
09-Aug-18 10:47 33.357771 -111.950846 278 11929ft 306kts
09-Aug-18 10:48 33.370185 -112.061229 281 13924ft 352kts
09-Aug-18 10:49 33.387796 -112.178731 281 16716ft 368kts
09-Aug-18 10:50 33.405957 -112.301058 280 19297ft 382kts
09-Aug-18 10:51 33.424462 -112.427125 280 21913ft 387kts
09-Aug-18 10:52 33.443039 -112.554605 281 24225ft 394kts
09-Aug-18 10:53 33.452054 -112.684548 271 26361ft 399kts
09-Aug-18 10:54 33.455711 -112.817033 280 28382ft 398kts
09-Aug-18 10:55 33.479322 -112.944535 282 30253ft 390kts
09-Aug-18 10:56 33.502829 -113.069186 282 31903ft 384kts
09-Aug-18 10:57 33.525911 -113.192737 282 33374ft 379kts
09-Aug-18 10:58 33.548622 -113.315221 282 34678ft 375kts
09-Aug-18 10:59 33.570862 -113.435999 282 35826ft 373kts
09-Aug-18 11:00 33.593128 -113.556774 282 36846ft 371kts
09-Aug-18 11:01 33.615574 -113.676770 282 37734ft 371kts
09-Aug-18 11:02 33.638273 -113.799762 281 38018ft 392kts
09-Aug-18 11:03 33.673050 -113.928040 294 38016ft 423kts
09-Aug-18 11:04 33.723305 -114.057756 294 38007ft 427kts
09-Aug-18 11:05 33.764312 -114.191246 279 38020ft 432kts
09-Aug-18 11:06 33.780835 -114.333587 278 38008ft 431kts
09-Aug-18 11:07 33.797095 -114.476010 278 38006ft 431kts
09-Aug-18 11:08 33.813279 -114.618257 278 38007ft 431kts
09-Aug-18 11:09 33.829184 -114.759284 277 38009ft 431kts
09-Aug-18 11:10 33.845167 -114.902274 277 37332ft 430kts
09-Aug-18 11:11 33.860963 -115.044448 277 36342ft 430kts
09-Aug-18 11:12 33.876617 -115.186638 277 35353ft 432kts
09-Aug-18 11:13 33.892259 -115.330203 277 34360ft 437kts
09-Aug-18 11:14 33.907918 -115.475432 277 33360ft 439kts
09-Aug-18 11:15 33.923458 -115.621132 277 32363ft 442kts
09-Aug-18 11:16 33.934317 -115.753126 274 31471ft 440kts
09-Aug-18 11:17 33.944438 -115.899838 274 30002ft 438kts
09-Aug-18 11:18 33.954249 -116.041851 273 27812ft 424kts
09-Aug-18 11:19 33.963746 -116.182113 273 25632ft 418kts
09-Aug-18 11:20 33.951948 -116.317881 260 24041ft 403kts
09-Aug-18 11:21 33.934716 -116.452589 261 23926ft 411kts
09-Aug-18 11:22 33.916690 -116.593952 260 20527ft 420kts
09-Aug-18 11:23 33.900495 -116.718719 259 18158ft 377kts
09-Aug-18 11:24 33.885900 -116.842663 261 15971ft 376kts
09-Aug-18 11:25 33.872784 -116.962450 261 13907ft 349kts
09-Aug-18 11:26 33.860693 -117.071840 261 12011ft 318kts
09-Aug-18 11:27 33.849518 -117.172013 261 11076ft 300kts
09-Aug-18 11:28 33.838422 -117.270651 261 10179ft 294kts
09-Aug-18 11:29 33.827492 -117.366989 262 9032ft 281kts
09-Aug-18 11:30 33.824904 -117.456595 271 7913ft 265kts
09-Aug-18 11:31 33.827133 -117.540807 271 6809ft 243kts
09-Aug-18 11:32 33.830002 -117.620759 271 6019ft 228kts
09-Aug-18 11:33 33.833108 -117.693640 271 6027ft 218kts
09-Aug-18 11:34 33.836257 -117.765464 271 5768ft 221kts
09-Aug-18 11:35 33.871541 -117.798369 45 4272ft 212kts
09-Aug-18 11:36 33.848701 -117.761733 199 3008ft 190kts
09-Aug-18 11:37 33.801827 -117.788692 207 2693ft 169kts
09-Aug-18 11:38 33.765723 -117.811671 208 1913ft 136kts
09-Aug-18 11:39 33.732474 -117.832808 208 1205ft 135kts
09-Aug-18 11:40 33.699573 -117.853493 209 483ft 132kts
09-Aug-18 11:41 33.671289 -117.871640 207 64ft 22kts
09-Aug-18 11:42 33.669176 -117.871647 130 64ft 0kts
09-Aug-18 11:43 33.669535 -117.870513 40 64ft 9kts
09-Aug-18 11:44 33.672576 -117.867832 30 64ft 13kts
09-Aug-18 11:45 33.675008 -117.865916 28 64ft 9kts
09-Aug-18 11:46 33.675930 -117.865126 115 64ft 2kts
09-Aug-18 11:47 33.675729 -117.864665 120 64ft 0kts
09-Aug-18 11:48 33.675729 -117.864665 120 64ft 0kts

Navigation Log

Ident Type
Flight plan parsing failed, navigation log unavailable